createdAt,value
2022-10-21T00:02:07.226Z,100806.00
2022-10-21T00:04:37.544Z,100802.56
2022-10-21T00:07:06.172Z,100800.84
2022-10-21T00:09:35.442Z,100788.81
2022-10-21T00:12:04.206Z,100788.84
2022-10-21T00:14:32.960Z,100785.41
2022-10-21T00:17:03.596Z,100789.72
2022-10-21T00:19:32.963Z,100778.50
2022-10-21T00:22:03.043Z,100780.22
2022-10-21T00:24:33.403Z,100773.31
2022-10-21T00:27:02.987Z,100777.59
2022-10-21T00:29:31.710Z,100772.44
2022-10-21T00:32:00.266Z,100763.78
2022-10-21T00:34:30.968Z,100768.09
2022-10-21T00:36:59.575Z,100767.28
2022-10-21T00:39:29.979Z,100768.09
2022-10-21T00:41:58.372Z,100753.44
2022-10-21T00:44:27.864Z,100767.19
2022-10-21T00:47:02.252Z,100769.78
2022-10-21T00:49:39.367Z,100774.03
2022-10-21T00:52:15.970Z,100778.38
2022-10-21T00:54:48.250Z,100779.25
2022-10-21T00:57:18.776Z,100766.38
2022-10-21T00:59:51.231Z,100759.53
2022-10-21T01:02:20.172Z,100759.59
2022-10-21T01:04:53.600Z,100762.19
2022-10-21T01:07:22.356Z,100763.06
2022-10-21T01:09:52.690Z,100766.50
2022-10-21T01:12:30.564Z,100769.91
2022-10-21T01:15:04.497Z,100768.19
2022-10-21T01:17:49.801Z,100756.13
2022-10-21T01:20:40.364Z,100759.59
2022-10-21T01:23:33.163Z,100753.53
2022-10-21T01:26:29.268Z,100743.22
2022-10-21T01:29:18.151Z,100739.72
2022-10-21T01:31:52.684Z,100744.88
2022-10-21T01:34:28.356Z,100743.13
2022-10-21T01:37:07.554Z,100747.38
2022-10-21T01:39:41.727Z,100751.63
2022-10-21T01:42:17.747Z,100746.50
2022-10-21T01:44:52.970Z,100743.03
2022-10-21T01:47:28.171Z,100731.88
2022-10-21T01:50:03.448Z,100733.66
2022-10-21T01:52:32.603Z,100726.78
2022-10-21T01:55:05.377Z,100720.75
2022-10-21T01:57:39.049Z,100707.84
2022-10-21T02:00:09.009Z,100713.00
2022-10-21T02:02:43.665Z,100706.06
2022-10-21T02:05:16.591Z,100713.00
2022-10-21T02:07:48.269Z,100705.25
2022-10-21T02:10:17.199Z,100713.00
2022-10-21T02:12:48.967Z,100707.84
2022-10-21T02:15:19.458Z,100705.25
2022-10-21T02:17:55.245Z,100704.41
2022-10-21T02:20:27.115Z,100700.09
2022-10-21T02:22:56.025Z,100685.50
2022-10-21T02:25:27.371Z,100685.56
2022-10-21T02:27:59.731Z,100680.44
2022-10-21T02:30:29.961Z,100669.38
2022-10-21T02:33:07.660Z,100670.34
2022-10-21T02:35:45.308Z,100674.69
2022-10-21T02:38:23.824Z,100670.41
2022-10-21T02:40:56.375Z,100657.53
2022-10-21T02:43:28.937Z,100656.69
2022-10-21T02:46:02.567Z,100661.91
2022-10-21T02:48:34.259Z,100665.34
2022-10-21T02:51:03.985Z,100664.41
2022-10-21T02:53:32.973Z,100644.63
2022-10-21T02:56:03.931Z,100641.22
2022-10-21T02:58:32.607Z,100640.38
2022-10-21T03:01:01.135Z,100636.97
2022-10-21T03:03:32.333Z,100637.84
2022-10-21T03:06:00.963Z,100643.03
2022-10-21T03:08:29.418Z,100646.41
2022-10-21T03:10:58.696Z,100642.91
2022-10-21T03:13:27.050Z,100635.16
2022-10-21T03:15:55.633Z,100634.28
2022-10-21T03:18:24.106Z,100621.41
2022-10-21T03:20:54.558Z,100624.03
2022-10-21T03:23:23.101Z,100620.63
2022-10-21T03:25:51.729Z,100618.09
2022-10-21T03:28:21.955Z,100605.16
2022-10-21T03:30:51.472Z,100606.91
2022-10-21T03:33:19.896Z,100610.34
2022-10-21T03:35:48.899Z,100602.59
2022-10-21T03:38:19.419Z,100588.84
2022-10-21T03:40:48.067Z,100582.84
2022-10-21T03:43:16.542Z,100580.25
2022-10-21T03:45:45.129Z,100575.09
2022-10-21T03:48:14.085Z,100581.97
2022-10-21T03:50:42.631Z,100587.09
2022-10-21T03:53:24.442Z,100598.28
2022-10-21T03:56:01.226Z,100600.78
2022-10-21T03:58:29.679Z,100602.44
2022-10-21T04:00:58.080Z,100591.22
2022-10-21T04:03:26.705Z,100579.19
2022-10-21T04:05:55.502Z,100572.38
2022-10-21T04:08:24.139Z,100569.81
2022-10-21T04:10:52.958Z,100565.53
2022-10-21T04:13:23.111Z,100575.81
2022-10-21T04:15:58.217Z,100567.19
2022-10-21T04:18:27.340Z,100562.84
2022-10-21T04:20:56.532Z,100556.81
2022-10-21T04:23:25.948Z,100564.56
2022-10-21T04:25:55.395Z,100568.81
2022-10-21T04:28:25.536Z,100568.78
2022-10-21T04:30:54.855Z,100563.59
2022-10-21T04:33:23.547Z,100556.69
2022-10-21T04:35:52.180Z,100557.53
2022-10-21T04:38:23.299Z,100554.94
2022-10-21T04:40:57.598Z,100544.63
2022-10-21T04:43:28.277Z,100536.03
2022-10-21T04:45:57.887Z,100525.75
2022-10-21T04:48:27.009Z,100521.50
2022-10-21T04:50:57.818Z,100506.09
2022-10-21T04:53:26.523Z,100514.78
2022-10-21T04:55:55.555Z,100526.78
2022-10-21T04:58:24.487Z,100513.03
2022-10-21T05:00:57.742Z,100508.78
2022-10-21T05:03:26.452Z,100500.19
2022-10-21T05:05:54.976Z,100502.81
2022-10-21T05:08:23.853Z,100504.56
2022-10-21T05:10:59.380Z,100502.84
2022-10-21T05:13:28.173Z,100492.50
2022-10-21T05:16:00.872Z,100494.25
2022-10-21T05:18:29.466Z,100493.38
2022-10-21T05:20:58.754Z,100486.50
2022-10-21T05:23:30.534Z,100492.53
2022-10-21T05:25:59.812Z,100496.84
2022-10-21T05:28:28.857Z,100493.41
2022-10-21T05:30:57.718Z,100484.81
2022-10-21T05:33:28.645Z,100477.91
2022-10-21T05:36:02.223Z,100471.03
2022-10-21T05:38:31.149Z,100475.31
2022-10-21T05:41:02.931Z,100467.59
2022-10-21T05:43:31.612Z,100471.88
2022-10-21T05:46:00.720Z,100470.13
2022-10-21T05:48:31.057Z,100471.03
2022-10-21T05:51:02.715Z,100471.00
2022-10-21T05:53:31.933Z,100468.41
2022-10-21T05:56:01.818Z,100473.56
2022-10-21T05:58:31.945Z,100468.41
2022-10-21T06:01:00.897Z,100470.09
2022-10-21T06:03:35.399Z,100464.94
2022-10-21T06:06:06.924Z,100470.94
2022-10-21T06:08:39.400Z,100470.09
2022-10-21T06:11:10.059Z,100476.97
2022-10-21T06:13:38.672Z,100480.41
2022-10-21T06:16:08.783Z,100482.13
2022-10-21T06:18:39.482Z,100476.09
2022-10-21T06:21:08.815Z,100476.94
2022-10-21T06:23:38.177Z,100482.97
2022-10-21T06:26:08.716Z,100487.28
2022-10-21T06:28:39.302Z,100487.25
2022-10-21T06:31:09.439Z,100479.50
2022-10-21T06:33:39.438Z,100476.88
2022-10-21T06:36:11.745Z,100471.69
2022-10-21T06:38:40.226Z,100488.91
2022-10-21T06:41:13.201Z,100481.97
2022-10-21T06:43:45.435Z,100487.97
2022-10-21T06:46:16.638Z,100490.53
2022-10-21T06:48:46.746Z,100489.56
2022-10-21T06:51:17.647Z,100476.56
2022-10-21T06:53:46.159Z,100487.75
2022-10-21T06:56:16.919Z,100502.16
2022-10-21T06:58:48.322Z,100499.34
2022-10-21T07:01:33.745Z,100499.25
2022-10-21T07:04:06.508Z,100508.81
2022-10-21T07:06:35.770Z,100502.75
2022-10-21T07:09:05.164Z,100494.88
2022-10-21T07:11:33.677Z,100494.66
2022-10-21T07:14:02.700Z,100488.44
2022-10-21T07:16:34.785Z,100484.94
2022-10-21T07:19:06.067Z,100473.69
2022-10-21T07:21:37.114Z,100465.88
2022-10-21T07:24:05.901Z,100471.88
2022-10-21T07:26:35.866Z,100470.97
2022-10-21T07:29:05.052Z,100465.81
2022-10-21T07:31:35.665Z,100461.31
2022-10-21T07:34:08.603Z,100461.06
2022-10-21T07:36:39.467Z,100466.00
2022-10-21T07:39:10.971Z,100463.16
2022-10-21T07:41:42.820Z,100465.41
2022-10-21T07:44:13.350Z,100473.81
2022-10-21T07:46:43.731Z,100477.88
2022-10-21T07:49:14.735Z,100483.72
2022-10-21T07:51:45.382Z,100480.91
2022-10-21T07:54:15.216Z,100462.59
2022-10-21T07:56:48.498Z,100456.31
2022-10-21T07:59:19.502Z,100443.00
2022-10-21T08:04:29.977Z,100446.59
2022-10-21T08:06:59.476Z,100449.63
2022-10-21T08:09:28.059Z,100440.50
2022-10-21T08:11:57.396Z,100440.63
2022-10-21T08:14:25.952Z,100425.72
2022-10-21T08:16:55.651Z,100409.50
2022-10-21T08:19:29.842Z,100426.09
2022-10-21T08:21:58.927Z,100420.19
2022-10-21T08:24:28.397Z,100427.81
2022-10-21T08:26:56.833Z,100424.09
2022-10-21T08:29:25.818Z,100417.00
2022-10-21T08:31:54.522Z,100407.88
2022-10-21T08:34:22.892Z,100405.91
2022-10-21T08:36:52.730Z,100415.03
2022-10-21T08:39:21.301Z,100410.66
2022-10-21T08:42:02.867Z,100396.09
2022-10-21T08:44:37.840Z,100398.94
2022-10-21T08:47:14.671Z,100391.53
2022-10-21T08:50:12.848Z,100394.09
2022-10-21T08:52:46.632Z,100387.56
2022-10-21T08:55:22.270Z,100397.72
2022-10-21T08:57:53.712Z,100394.06
2022-10-21T09:00:26.610Z,100389.53
2022-10-21T09:03:12.473Z,100392.41
2022-10-21T09:06:02.946Z,100394.94
2022-10-21T09:08:40.862Z,100377.56
2022-10-21T09:11:20.754Z,100374.94
2022-10-21T09:14:25.823Z,100392.66
2022-10-21T09:17:03.405Z,100393.31
2022-10-21T09:19:41.841Z,100377.00
2022-10-21T09:22:34.788Z,100380.56
2022-10-21T09:25:19.549Z,100366.63
2022-10-21T09:27:56.349Z,100369.31
2022-10-21T09:30:28.354Z,100368.69
2022-10-21T09:32:59.269Z,100362.69
2022-10-21T09:35:35.518Z,100356.59
2022-10-21T09:38:13.013Z,100344.75
2022-10-21T09:40:43.328Z,100337.84
2022-10-21T09:43:18.696Z,100321.69
2022-10-21T09:45:51.173Z,100327.63
2022-10-21T09:48:33.706Z,100327.50
2022-10-21T09:51:11.630Z,100331.22
2022-10-21T09:53:55.580Z,100326.53
2022-10-21T09:56:32.210Z,100334.84
2022-10-21T09:59:08.515Z,100323.47
2022-10-21T10:01:39.023Z,100318.84
2022-10-21T10:04:12.525Z,100315.41
2022-10-21T10:06:43.740Z,100308.75
2022-10-21T10:09:18.099Z,100305.66
2022-10-21T10:11:55.319Z,100309.75
2022-10-21T10:14:31.129Z,100302.97
2022-10-21T10:17:23.348Z,100303.09
2022-10-21T10:20:10.436Z,100306.91
2022-10-21T10:22:43.320Z,100306.41
2022-10-21T10:25:21.785Z,100285.59
2022-10-21T10:27:55.900Z,100302.09
2022-10-21T10:30:25.698Z,100294.00
2022-10-21T10:32:57.517Z,100294.22
2022-10-21T10:35:32.396Z,100286.16
2022-10-21T10:38:02.888Z,100282.03
2022-10-21T10:40:39.558Z,100284.94
2022-10-21T10:43:17.117Z,100279.34
2022-10-21T10:45:50.285Z,100275.25
2022-10-21T10:48:24.735Z,100257.38
2022-10-21T10:50:54.201Z,100263.41
2022-10-21T10:53:33.355Z,100260.34
2022-10-21T10:56:15.441Z,100249.03
2022-10-21T10:58:48.599Z,100249.00
2022-10-21T11:01:26.298Z,100247.13
2022-10-21T11:04:01.756Z,100250.19
2022-10-21T11:06:38.078Z,100246.72
2022-10-21T11:09:09.211Z,100239.44
2022-10-21T11:11:41.717Z,100223.63
2022-10-21T11:14:17.841Z,100218.06
2022-10-21T11:17:01.078Z,100216.22
2022-10-21T11:19:41.386Z,100216.09
2022-10-21T11:22:16.537Z,100212.81
2022-10-21T11:24:55.653Z,100216.88
2022-10-21T11:27:35.176Z,100207.50
2022-10-21T11:30:12.641Z,100206.84
2022-10-21T11:33:01.163Z,100205.69
2022-10-21T11:35:39.393Z,100207.56
2022-10-21T11:38:29.401Z,100207.19
2022-10-21T11:43:51.067Z,100188.72
2022-10-21T11:46:30.107Z,100195.38
2022-10-21T11:49:09.678Z,100190.56
2022-10-21T11:51:52.498Z,100191.97
2022-10-21T11:54:50.305Z,100186.66
2022-10-21T11:57:36.978Z,100168.13
2022-10-21T12:00:12.286Z,100170.00
2022-10-21T12:02:45.425Z,100170.50
2022-10-21T12:05:26.002Z,100162.84
2022-10-21T12:08:09.543Z,100158.41
2022-10-21T12:10:45.983Z,100158.03
2022-10-21T12:13:19.632Z,100144.94
2022-10-21T12:15:52.413Z,100145.13
2022-10-21T12:18:26.551Z,100130.75
2022-10-21T12:20:56.475Z,100133.56
2022-10-21T12:23:30.644Z,100127.63
2022-10-21T12:26:13.632Z,100124.97
2022-10-21T12:28:50.309Z,100122.22
2022-10-21T12:31:33.280Z,100130.81
2022-10-21T12:34:09.458Z,100124.19
2022-10-21T12:36:43.426Z,100138.66
2022-10-21T12:39:17.622Z,100123.41
2022-10-21T12:41:48.299Z,100121.09
2022-10-21T12:44:24.020Z,100130.13
2022-10-21T12:46:59.966Z,100128.56
2022-10-21T12:49:46.505Z,100115.75
2022-10-21T12:52:23.976Z,100124.53
2022-10-21T12:54:57.959Z,100116.19
2022-10-21T12:57:30.208Z,100116.19
2022-10-21T13:00:51.778Z,100126.84
2022-10-21T13:03:22.679Z,100118.22
2022-10-21T13:06:07.441Z,100118.19
2022-10-21T13:08:51.881Z,100110.22
2022-10-21T13:11:37.981Z,100106.59
2022-10-21T13:14:35.304Z,100095.09
2022-10-21T13:17:32.477Z,100091.28
2022-10-21T13:20:41.323Z,100099.91
2022-10-21T13:23:41.843Z,100096.25
2022-10-21T13:26:19.834Z,100097.97
2022-10-21T13:29:20.350Z,100076.31
2022-10-21T13:31:49.470Z,100086.03
2022-10-21T13:34:29.474Z,100088.03
2022-10-21T13:36:58.911Z,100089.97
2022-10-21T13:39:31.830Z,100091.91
2022-10-21T13:42:05.000Z,100088.63
2022-10-21T13:44:38.167Z,100075.78
2022-10-21T13:47:29.116Z,100074.84
2022-10-21T13:50:04.011Z,100067.88
2022-10-21T13:52:33.464Z,100073.16
2022-10-21T13:55:06.495Z,100059.19
2022-10-21T13:57:37.700Z,100060.19
2022-10-21T14:00:09.786Z,100059.31
2022-10-21T14:02:38.271Z,100033.13
2022-10-21T14:05:07.262Z,100036.75
2022-10-21T14:07:36.429Z,100031.44
2022-10-21T14:10:08.320Z,100034.13
2022-10-21T14:12:42.611Z,100036.81
2022-10-21T14:15:18.175Z,100043.25
2022-10-21T14:17:55.283Z,100039.97
2022-10-21T14:20:28.113Z,100037.56
2022-10-21T14:22:57.154Z,100028.22
2022-10-21T14:25:28.440Z,100023.97
2022-10-21T14:27:57.365Z,100033.00
2022-10-21T14:30:30.112Z,100026.25
2022-10-21T14:33:01.923Z,100026.41
2022-10-21T14:35:31.350Z,100020.53
2022-10-21T14:38:01.285Z,100014.66
2022-10-21T14:40:34.149Z,100025.44
2022-10-21T14:43:05.746Z,100024.81
2022-10-21T14:45:36.922Z,100032.13
2022-10-21T14:48:12.234Z,100035.22
2022-10-21T14:50:42.998Z,100038.03
2022-10-21T14:53:23.236Z,100029.06
2022-10-21T14:55:59.438Z,100031.75
2022-10-21T14:58:34.019Z,100031.25
2022-10-21T15:01:08.091Z,100026.28
2022-10-21T15:03:45.402Z,100030.88
2022-10-21T15:06:16.379Z,100023.25
2022-10-21T15:08:59.275Z,100013.78
2022-10-21T15:11:37.214Z,100013.06
2022-10-21T15:14:31.976Z,100001.94
2022-10-21T15:17:05.782Z,100005.47
2022-10-21T15:19:45.647Z,100018.59
2022-10-21T15:22:28.512Z,100010.91
2022-10-21T15:25:04.644Z,100008.53
2022-10-21T15:27:42.508Z,100014.13
2022-10-21T15:30:21.756Z,100011.75
2022-10-21T15:32:51.668Z,100028.59
2022-10-21T15:35:24.986Z,100016.66
2022-10-21T15:37:57.623Z,100026.59
2022-10-21T15:40:26.702Z,100014.75
2022-10-21T15:43:02.057Z,99995.94
2022-10-21T15:45:30.843Z,99993.66
2022-10-21T15:47:59.439Z,99986.84
2022-10-21T15:50:28.698Z,99984.59
2022-10-21T15:52:57.129Z,99984.09
2022-10-21T15:55:26.766Z,99990.63
2022-10-21T15:58:00.410Z,99996.13
2022-10-21T16:00:29.964Z,99999.22
2022-10-21T16:02:58.990Z,100009.09
2022-10-21T16:05:27.648Z,100012.09
2022-10-21T16:07:56.941Z,100004.66
2022-10-21T16:10:29.620Z,100005.91
2022-10-21T16:12:59.917Z,100012.34
2022-10-21T16:15:28.709Z,100010.81
2022-10-21T16:17:58.584Z,100009.38
2022-10-21T16:20:30.362Z,100001.75
2022-10-21T16:23:02.158Z,99990.72
2022-10-21T16:25:32.230Z,99988.31
2022-10-21T16:28:07.940Z,99988.44
2022-10-21T16:30:39.539Z,99983.47
2022-10-21T16:33:08.132Z,99988.94
2022-10-21T16:35:40.036Z,99981.47
2022-10-21T16:38:08.584Z,99987.84
2022-10-21T16:40:37.773Z,99982.81
2022-10-21T16:43:12.830Z,99977.88
2022-10-21T16:45:45.766Z,99984.69
2022-10-21T16:48:17.107Z,99982.13
2022-10-21T16:50:47.350Z,99984.00
2022-10-21T16:53:17.227Z,99983.25
2022-10-21T16:55:45.908Z,99985.06
2022-10-21T16:58:15.987Z,99985.19
2022-10-21T17:00:45.984Z,99986.97
2022-10-21T17:03:14.791Z,99982.81
2022-10-21T17:05:43.585Z,99977.53
2022-10-21T17:08:12.086Z,99979.38
2022-10-21T17:10:40.874Z,99982.06
2022-10-21T17:13:10.455Z,99979.63
2022-10-21T17:15:41.191Z,99978.84
2022-10-21T17:18:13.129Z,99975.47
2022-10-21T17:20:44.705Z,99975.56
2022-10-21T17:23:13.231Z,99973.81
2022-10-21T17:25:41.822Z,99973.75
2022-10-21T17:28:10.513Z,99972.94
2022-10-21T17:30:40.650Z,99970.34
2022-10-21T17:33:11.907Z,99971.19
2022-10-21T17:35:42.819Z,99966.84
2022-10-21T17:38:11.256Z,99953.91
2022-10-21T17:40:39.680Z,99947.84
2022-10-21T17:43:09.012Z,99955.63
2022-10-21T17:45:41.887Z,99947.03
2022-10-21T17:48:10.728Z,99947.84
2022-10-21T17:50:40.343Z,99947.03
2022-10-21T17:53:11.727Z,99947.03
2022-10-21T17:55:42.505Z,99943.50
2022-10-21T17:58:10.930Z,99942.59
2022-10-21T18:00:44.629Z,99941.72
2022-10-21T18:03:18.073Z,99942.53
2022-10-21T18:05:47.629Z,99935.63
2022-10-21T18:08:16.678Z,99931.38
2022-10-21T18:10:52.543Z,99932.19
2022-10-21T18:13:21.115Z,99923.50
2022-10-21T18:15:51.543Z,99933.06
2022-10-21T18:18:20.652Z,99924.38
2022-10-21T18:20:49.772Z,99926.06
2022-10-21T18:23:18.569Z,99919.94
2022-10-21T18:25:47.195Z,99913.75
2022-10-21T18:28:16.088Z,99908.34
2022-10-21T18:30:45.090Z,99914.22
2022-10-21T18:33:15.022Z,99905.28
2022-10-21T18:35:48.088Z,99906.75
2022-10-21T18:38:17.168Z,99897.81
2022-10-21T18:40:56.518Z,99903.53
2022-10-21T18:43:30.756Z,99898.94
2022-10-21T18:45:59.566Z,99901.34
2022-10-21T18:48:30.258Z,99889.94
2022-10-21T18:51:05.621Z,99889.75
2022-10-21T18:53:35.782Z,99886.13
2022-10-21T18:56:06.659Z,99878.19
2022-10-21T18:58:36.038Z,99885.00
2022-10-21T19:01:07.001Z,99882.28
2022-10-21T19:03:37.941Z,99879.56
2022-10-21T19:06:16.891Z,99883.81
2022-10-21T19:08:45.838Z,99873.28
2022-10-21T19:11:14.552Z,99873.13
2022-10-21T19:13:43.036Z,99870.38
2022-10-21T19:16:11.531Z,99876.34
2022-10-21T19:18:42.928Z,99878.03
2022-10-21T19:21:13.119Z,99875.38
2022-10-21T19:23:41.818Z,99873.63
2022-10-21T19:26:12.866Z,99872.69
2022-10-21T19:28:42.473Z,99864.09
2022-10-21T19:31:12.577Z,99872.59
2022-10-21T19:33:43.993Z,99870.88
2022-10-21T19:36:12.951Z,99870.75
2022-10-21T19:38:44.638Z,99869.84
2022-10-21T19:41:16.896Z,99871.63
2022-10-21T19:43:47.757Z,99870.69
2022-10-21T19:46:22.191Z,99868.94
2022-10-21T19:48:55.763Z,99855.06
2022-10-21T19:51:26.367Z,99852.34
2022-10-21T19:53:56.459Z,99851.50
2022-10-21T19:56:29.656Z,99846.31
2022-10-21T19:58:59.407Z,99841.03
2022-10-21T20:01:28.444Z,99848.81
2022-10-21T20:03:58.728Z,99838.41
2022-10-21T20:06:29.012Z,99841.84
2022-10-21T20:08:58.931Z,99841.84
2022-10-21T20:11:31.045Z,99848.81
2022-10-21T20:14:00.852Z,99848.75
2022-10-21T20:16:33.790Z,99843.59
2022-10-21T20:19:05.321Z,99842.63
2022-10-21T20:21:36.357Z,99846.09
2022-10-21T20:24:05.909Z,99842.56
2022-10-21T20:26:34.823Z,99837.34
2022-10-21T20:29:03.641Z,99842.44
2022-10-21T20:31:32.829Z,99842.44
2022-10-21T20:34:03.674Z,99838.06
2022-10-21T20:36:33.732Z,99828.56
2022-10-21T20:39:03.249Z,99837.06
2022-10-21T20:41:34.271Z,99838.84
2022-10-21T20:44:04.173Z,99837.06
2022-10-21T20:46:35.430Z,99844.00
2022-10-21T20:49:06.627Z,99834.53
2022-10-21T20:51:36.478Z,99846.75
2022-10-21T20:54:08.582Z,99832.81
2022-10-21T20:56:38.405Z,99836.34
2022-10-21T20:59:08.105Z,99838.09
2022-10-21T21:01:41.915Z,99845.94
2022-10-21T21:04:14.809Z,99838.97
2022-10-21T21:06:47.818Z,99843.34
2022-10-21T21:12:07.296Z,99845.13
2022-10-21T21:14:38.147Z,99846.00
2022-10-21T21:17:06.720Z,99850.34
2022-10-21T21:19:36.408Z,99847.72
2022-10-21T21:22:05.311Z,99839.03
2022-10-21T21:24:33.875Z,99850.28
2022-10-21T21:27:02.371Z,99854.59
2022-10-21T21:29:30.940Z,99850.34
2022-10-21T21:31:59.387Z,99856.53
2022-10-21T21:34:27.919Z,99861.03
2022-10-21T21:36:58.316Z,99865.53
2022-10-21T21:39:27.112Z,99868.19
2022-10-21T21:41:55.757Z,99860.41
2022-10-21T21:44:24.141Z,99860.56
2022-10-21T21:46:52.621Z,99851.91
2022-10-21T21:49:20.918Z,99852.03
2022-10-21T21:51:49.841Z,99845.03
2022-10-21T21:54:19.900Z,99854.59
2022-10-21T21:56:48.522Z,99847.75
2022-10-21T21:59:17.385Z,99853.09
2022-10-21T22:01:48.650Z,99850.69
2022-10-21T22:04:17.322Z,99850.72
2022-10-21T22:06:46.332Z,99859.44
2022-10-21T22:09:14.751Z,99851.81
2022-10-21T22:11:44.730Z,99851.81
2022-10-21T22:14:13.490Z,99857.94
2022-10-21T22:16:42.402Z,99853.66
2022-10-21T22:19:12.051Z,99851.81
2022-10-21T22:21:40.383Z,99857.94
2022-10-21T22:24:08.754Z,99864.88
2022-10-21T22:26:37.670Z,99861.34
2022-10-21T22:29:07.638Z,99855.34
2022-10-21T22:31:35.969Z,99856.97
2022-10-21T22:34:07.776Z,99844.84
2022-10-21T22:36:39.791Z,99849.97
2022-10-21T22:39:09.159Z,99848.28
2022-10-21T22:41:37.515Z,99852.59
2022-10-21T22:44:07.599Z,99847.31
2022-10-21T22:46:36.655Z,99840.34
2022-10-21T22:49:05.886Z,99843.72
2022-10-21T22:51:35.181Z,99835.00
2022-10-21T22:54:05.670Z,99836.69
2022-10-21T22:56:40.274Z,99837.53
2022-10-21T22:59:10.426Z,99836.69
2022-10-21T23:01:39.723Z,99837.47
2022-10-21T23:04:08.163Z,99831.28
2022-10-21T23:06:36.835Z,99840.09
2022-10-21T23:09:06.366Z,99841.78
2022-10-21T23:11:35.007Z,99838.28
2022-10-21T23:14:08.351Z,99838.38
2022-10-21T23:16:39.480Z,99833.13
2022-10-21T23:19:09.480Z,99835.66
2022-10-21T23:21:38.567Z,99826.00
2022-10-21T23:24:07.682Z,99826.00
2022-10-21T23:26:36.875Z,99824.19
2022-10-21T23:29:05.764Z,99814.63
2022-10-21T23:31:34.517Z,99822.44
2022-10-21T23:34:06.098Z,99816.28
2022-10-21T23:36:35.709Z,99815.41
2022-10-21T23:39:05.338Z,99812.72
2022-10-21T23:41:33.689Z,99814.44
2022-10-21T23:44:02.181Z,99805.72
2022-10-21T23:46:30.728Z,99803.97
2022-10-21T23:48:59.183Z,99797.69
2022-10-21T23:51:29.100Z,99802.03
2022-10-21T23:53:58.370Z,99792.47
2022-10-21T23:56:26.849Z,99795.94
2022-10-21T23:58:55.492Z,99796.66
